Ganges, Ohio
Current Conditions -  °F | °C
As of 9:52 PM on Saturday 22 Nov 2014 (Local Time) from KMFD Reporting Station
Overcast Overcast  
Wind Chill: 40°   Ceiling: 4700
Heat Index: 46°   Visibility: 10mi
Dew Point: 38°   Wind: 14mph
Humidity: 73%   Direction: 190°S
Pressure: 30.04"   Gusts: NA
Location:  40.8848°N, 82.6515°W
Report Text: KMFD 230252Z 19012KT 10SM BKN047 BKN055 OVC075 08/03 A3004 RMK AO2 RAB06E36 SLP181 P0000 60000 T00780033 56004
Loading
Personal Weather Stations






























Interactive Weather Map New forecast layout! Learn more

10-Day Weather Forecast

Advertisements
Track Severe Weather on mobile